createdAt,value
2023-04-29T00:00:55.900Z,25.83
2023-04-29T00:03:22.986Z,29.10
2023-04-29T00:05:49.941Z,30.70
2023-04-29T00:08:16.573Z,30.83
2023-04-29T00:10:43.254Z,34.25
2023-04-29T00:13:10.109Z,36.22
2023-04-29T00:15:37.460Z,37.97
2023-04-29T00:18:04.084Z,38.03
2023-04-29T00:20:30.704Z,40.47
2023-04-29T00:22:57.273Z,41.03
2023-04-29T00:25:24.138Z,41.65
2023-04-29T00:27:50.894Z,42.95
2023-04-29T00:30:17.593Z,42.90
2023-04-29T00:32:44.818Z,42.60
2023-04-29T00:35:12.091Z,44.40
2023-04-29T00:37:38.878Z,44.35
2023-04-29T00:40:06.911Z,46.83
2023-04-29T00:42:33.927Z,45.63
2023-04-29T00:45:01.800Z,47.05
2023-04-29T00:47:28.869Z,45.72
2023-04-29T00:50:07.731Z,46.92
2023-04-29T00:52:35.178Z,48.30
2023-04-29T00:55:03.013Z,47.58
2023-04-29T00:57:30.158Z,42.80
2023-04-29T01:00:00.388Z,47.88
2023-04-29T01:02:28.913Z,45.78
2023-04-29T01:04:55.812Z,44.80
2023-04-29T01:07:38.510Z,45.45
2023-04-29T01:10:10.747Z,44.78
2023-04-29T01:12:47.051Z,45.63
2023-04-29T01:15:25.093Z,43.97
2023-04-29T01:18:05.555Z,43.15
2023-04-29T01:20:33.773Z,43.78
2023-04-29T01:23:00.833Z,47.63
2023-04-29T01:25:28.860Z,48.38
2023-04-29T01:28:20.798Z,45.28
2023-04-29T01:31:01.218Z,43.78
2023-04-29T01:34:02.152Z,44.85
2023-04-29T01:36:29.538Z,42.75
2023-04-29T01:39:16.564Z,45.30
2023-04-29T01:41:59.750Z,41.40
2023-04-29T01:44:30.075Z,44.40
2023-04-29T01:46:56.994Z,44.25
2023-04-29T01:49:35.717Z,42.45
2023-04-29T01:52:02.437Z,40.42
2023-04-29T01:54:30.145Z,44.22
2023-04-29T01:56:58.634Z,43.97
2023-04-29T01:59:35.526Z,43.42
2023-04-29T02:02:39.900Z,45.28
2023-04-29T02:05:34.380Z,39.45
2023-04-29T02:08:02.026Z,37.30
2023-04-29T02:10:30.831Z,39.40
2023-04-29T02:13:08.670Z,38.55
2023-04-29T02:15:35.377Z,36.08
2023-04-29T02:18:02.071Z,36.25
2023-04-29T02:20:28.898Z,34.28
2023-04-29T02:22:55.920Z,34.63
2023-04-29T02:25:22.688Z,34.55
2023-04-29T02:27:49.223Z,33.67
2023-04-29T02:30:16.179Z,34.70
2023-04-29T02:32:42.873Z,34.70
2023-04-29T02:35:09.754Z,35.33
2023-04-29T02:37:36.454Z,33.22
2023-04-29T02:40:03.645Z,36.58
2023-04-29T02:42:30.789Z,37.67
2023-04-29T02:44:57.824Z,37.10
2023-04-29T02:47:24.677Z,36.55
2023-04-29T02:49:51.802Z,37.67
2023-04-29T02:52:19.099Z,41.30
2023-04-29T02:54:46.512Z,41.58
2023-04-29T02:57:22.314Z,41.88
2023-04-29T02:59:49.273Z,39.38
2023-04-29T03:02:16.378Z,40.95
2023-04-29T03:04:46.708Z,40.20
2023-04-29T03:07:13.277Z,39.22
2023-04-29T03:09:39.896Z,42.22
2023-04-29T03:12:07.096Z,41.97
2023-04-29T03:14:33.674Z,42.90
2023-04-29T03:17:00.540Z,41.83
2023-04-29T03:19:27.459Z,44.10
2023-04-29T03:21:54.371Z,42.38
2023-04-29T03:24:21.945Z,45.95
2023-04-29T03:26:48.668Z,43.67
2023-04-29T03:29:15.656Z,44.15
2023-04-29T03:31:42.528Z,44.42
2023-04-29T03:34:09.347Z,42.22
2023-04-29T03:36:40.495Z,41.53
2023-04-29T03:39:08.145Z,43.58
2023-04-29T03:41:34.791Z,40.85
2023-04-29T03:44:01.529Z,39.08
2023-04-29T03:46:29.716Z,39.47
2023-04-29T03:48:56.534Z,39.10
2023-04-29T03:51:24.468Z,38.95
2023-04-29T03:53:57.959Z,35.58
2023-04-29T03:56:25.511Z,39.73
2023-04-29T03:58:52.990Z,36.47
2023-04-29T04:01:21.560Z,34.72
2023-04-29T04:03:49.075Z,34.40
2023-04-29T04:06:16.367Z,36.22
2023-04-29T04:08:43.031Z,34.03
2023-04-29T04:11:19.876Z,34.08
2023-04-29T04:13:59.042Z,31.98
2023-04-29T04:16:25.921Z,32.38
2023-04-29T04:18:52.936Z,31.45
2023-04-29T04:21:19.678Z,30.63
2023-04-29T04:23:54.532Z,29.75
2023-04-29T04:26:23.807Z,28.20
2023-04-29T04:28:59.357Z,27.02
2023-04-29T04:31:58.392Z,25.58
2023-04-29T04:34:26.307Z,25.02
2023-04-29T04:36:56.066Z,26.03
2023-04-29T04:39:23.006Z,24.63
2023-04-29T04:41:50.525Z,23.73
2023-04-29T04:44:18.545Z,24.08
2023-04-29T04:47:07.036Z,23.55
2023-04-29T04:49:49.913Z,24.83
2023-04-29T04:52:16.810Z,25.45
2023-04-29T04:54:48.860Z,24.98
2023-04-29T04:57:21.516Z,24.73
2023-04-29T04:59:48.216Z,25.15
2023-04-29T05:02:15.328Z,25.40
2023-04-29T05:04:41.939Z,26.25
2023-04-29T05:07:09.230Z,26.42
2023-04-29T05:09:55.558Z,25.85
2023-04-29T05:12:25.426Z,26.63
2023-04-29T05:14:55.381Z,28.48
2023-04-29T05:17:21.978Z,27.05
2023-04-29T05:19:48.550Z,29.00
2023-04-29T05:22:15.876Z,26.85
2023-04-29T05:24:42.824Z,26.70
2023-04-29T05:27:12.508Z,28.67
2023-04-29T05:29:39.342Z,29.08
2023-04-29T05:32:06.343Z,27.50
2023-04-29T05:34:33.135Z,28.25
2023-04-29T05:37:00.182Z,28.58
2023-04-29T05:39:27.350Z,27.80
2023-04-29T05:42:07.745Z,29.48
2023-04-29T05:44:41.891Z,28.88
2023-04-29T05:47:08.516Z,29.10
2023-04-29T05:49:36.919Z,30.65
2023-04-29T05:52:06.454Z,29.90
2023-04-29T05:54:38.573Z,29.20
2023-04-29T05:57:06.651Z,29.15
2023-04-29T05:59:33.687Z,28.23
2023-04-29T06:02:04.261Z,29.98
2023-04-29T06:04:31.293Z,26.90
2023-04-29T06:07:19.994Z,28.38
2023-04-29T06:10:15.964Z,26.73
2023-04-29T06:12:44.986Z,27.65
2023-04-29T06:15:12.730Z,26.73
2023-04-29T06:17:39.390Z,27.42
2023-04-29T06:20:07.394Z,26.30
2023-04-29T06:22:34.096Z,25.40
2023-04-29T06:25:03.557Z,25.98
2023-04-29T06:27:50.592Z,25.05
2023-04-29T06:30:20.350Z,25.63
2023-04-29T06:32:47.140Z,25.77
2023-04-29T06:35:13.854Z,24.90
2023-04-29T06:37:59.231Z,20.80
2023-04-29T06:40:42.452Z,23.00
2023-04-29T06:43:43.044Z,23.95
2023-04-29T06:46:29.162Z,23.33
2023-04-29T06:49:02.996Z,23.20
2023-04-29T06:51:32.078Z,22.67
2023-04-29T06:53:59.249Z,22.67
2023-04-29T06:56:26.055Z,20.40
2023-04-29T06:58:52.812Z,22.30
2023-04-29T07:01:19.465Z,20.63
2023-04-29T07:03:46.369Z,21.85
2023-04-29T07:06:13.191Z,21.75
2023-04-29T07:08:40.057Z,20.02
2023-04-29T07:11:07.728Z,19.75
2023-04-29T07:13:34.263Z,19.17
2023-04-29T07:16:00.850Z,20.65
2023-04-29T07:18:40.389Z,19.42
2023-04-29T07:21:08.383Z,20.48
2023-04-29T07:23:35.314Z,19.08
2023-04-29T07:26:13.264Z,20.40
2023-04-29T07:28:40.229Z,18.55
2023-04-29T07:31:09.084Z,18.67
2023-04-29T07:33:36.038Z,17.73
2023-04-29T07:36:06.245Z,16.77
2023-04-29T07:38:33.996Z,13.47
2023-04-29T07:41:00.636Z,17.02
2023-04-29T07:43:27.405Z,17.10
2023-04-29T07:45:54.192Z,15.68
2023-04-29T07:48:21.726Z,16.02
2023-04-29T07:50:48.597Z,16.27
2023-04-29T07:53:18.084Z,16.05
2023-04-29T07:55:44.770Z,15.85
2023-04-29T07:58:14.678Z,16.42
2023-04-29T08:00:41.494Z,15.75
2023-04-29T08:03:08.747Z,16.42
2023-04-29T08:05:36.555Z,15.05
2023-04-29T08:08:03.817Z,14.95
2023-04-29T08:10:30.860Z,16.27
2023-04-29T08:12:57.866Z,16.80
2023-04-29T08:15:24.504Z,16.02
2023-04-29T08:17:51.214Z,16.83
2023-04-29T08:20:17.958Z,16.65
2023-04-29T08:22:44.549Z,15.48
2023-04-29T08:25:11.293Z,15.63
2023-04-29T08:27:37.942Z,16.00
2023-04-29T08:30:05.044Z,15.27
2023-04-29T08:32:32.186Z,17.30
2023-04-29T08:34:59.977Z,18.17
2023-04-29T08:37:27.230Z,17.00
2023-04-29T08:39:54.154Z,17.88
2023-04-29T08:42:33.178Z,16.50
2023-04-29T08:45:00.038Z,17.00
2023-04-29T08:47:30.615Z,18.75
2023-04-29T08:50:04.053Z,18.25
2023-04-29T08:52:32.130Z,19.33
2023-04-29T08:54:59.793Z,19.27
2023-04-29T08:57:28.261Z,19.95
2023-04-29T08:59:54.855Z,19.73
2023-04-29T09:02:22.958Z,18.58
2023-04-29T09:04:58.784Z,21.13
2023-04-29T09:07:26.104Z,19.48
2023-04-29T09:09:53.684Z,19.75
2023-04-29T09:12:20.432Z,21.00
2023-04-29T09:14:47.030Z,21.15
2023-04-29T09:17:13.573Z,20.58
2023-04-29T09:19:40.286Z,21.13
2023-04-29T09:22:07.935Z,21.85
2023-04-29T09:24:34.596Z,23.88
2023-04-29T09:27:03.087Z,20.45
2023-04-29T09:29:30.892Z,23.48
2023-04-29T09:31:58.850Z,23.75
2023-04-29T09:34:40.978Z,23.20
2023-04-29T09:37:24.633Z,21.70
2023-04-29T09:39:51.340Z,23.48
2023-04-29T09:42:17.914Z,22.52
2023-04-29T09:44:45.172Z,22.67
2023-04-29T09:47:15.226Z,23.23
2023-04-29T09:49:45.495Z,22.60
2023-04-29T09:52:14.894Z,23.05
2023-04-29T09:54:42.474Z,24.08
2023-04-29T09:57:10.845Z,23.55
2023-04-29T09:59:40.006Z,22.45
2023-04-29T10:02:11.887Z,22.42
2023-04-29T10:04:40.801Z,23.30
2023-04-29T10:07:14.641Z,23.73
2023-04-29T10:09:53.110Z,22.38
2023-04-29T10:12:20.992Z,23.27
2023-04-29T10:14:57.295Z,23.55
2023-04-29T10:17:49.425Z,23.80
2023-04-29T10:20:22.730Z,23.58
2023-04-29T10:22:50.923Z,24.00
2023-04-29T10:25:20.014Z,22.30
2023-04-29T10:27:47.429Z,22.33
2023-04-29T10:30:15.156Z,23.08
2023-04-29T10:35:19.087Z,24.08
2023-04-29T10:37:47.458Z,24.20
2023-04-29T10:40:55.011Z,23.92
2023-04-29T10:43:25.160Z,21.95
2023-04-29T10:46:18.219Z,17.33
2023-04-29T10:48:48.348Z,21.85
2023-04-29T10:51:44.601Z,23.20
2023-04-29T10:54:25.563Z,25.30
2023-04-29T10:56:54.152Z,24.33
2023-04-29T10:59:24.146Z,25.05
2023-04-29T11:01:52.631Z,23.52
2023-04-29T11:04:21.039Z,22.48
2023-04-29T11:06:52.993Z,22.60
2023-04-29T11:09:30.666Z,24.33
2023-04-29T11:12:05.685Z,23.33
2023-04-29T11:14:43.919Z,23.83
2023-04-29T11:17:13.424Z,24.58
2023-04-29T11:19:49.488Z,26.48
2023-04-29T11:22:18.786Z,27.60
2023-04-29T11:25:07.423Z,25.92
2023-04-29T11:27:38.997Z,26.05
2023-04-29T11:30:06.796Z,27.83
2023-04-29T11:32:39.074Z,28.40
2023-04-29T11:35:16.301Z,26.63
2023-04-29T11:37:45.327Z,25.55
2023-04-29T11:40:13.313Z,25.35
2023-04-29T11:42:46.437Z,29.98
2023-04-29T11:45:13.523Z,29.58
2023-04-29T11:47:43.653Z,29.70
2023-04-29T11:50:10.665Z,35.10
2023-04-29T11:52:39.249Z,27.15
2023-04-29T11:55:08.352Z,27.02
2023-04-29T11:57:35.183Z,24.33
2023-04-29T12:00:05.137Z,23.92
2023-04-29T12:02:35.105Z,24.55
2023-04-29T12:05:08.569Z,24.92
2023-04-29T12:07:36.349Z,27.20
2023-04-29T12:10:03.824Z,25.75
2023-04-29T12:12:34.991Z,24.25
2023-04-29T12:15:03.643Z,24.60
2023-04-29T12:17:30.373Z,25.30
2023-04-29T12:19:57.814Z,23.83
2023-04-29T12:22:33.875Z,23.60
2023-04-29T12:25:03.517Z,23.95
2023-04-29T12:27:30.164Z,25.67
2023-04-29T12:29:58.172Z,24.48
2023-04-29T12:32:25.796Z,24.27
2023-04-29T12:34:53.280Z,24.17
2023-04-29T12:37:23.026Z,25.42
2023-04-29T12:39:50.237Z,26.75
2023-04-29T12:42:17.244Z,25.58
2023-04-29T12:44:47.504Z,26.50
2023-04-29T12:47:15.299Z,25.92
2023-04-29T12:49:46.467Z,24.40
2023-04-29T12:52:14.347Z,26.40
2023-04-29T12:54:43.284Z,24.60
2023-04-29T12:57:10.985Z,24.25
2023-04-29T12:59:38.343Z,23.58
2023-04-29T13:02:05.328Z,24.00
2023-04-29T13:04:32.424Z,23.75
2023-04-29T13:07:02.582Z,23.10
2023-04-29T13:09:30.576Z,25.23
2023-04-29T13:11:59.559Z,26.35
2023-04-29T13:14:26.866Z,25.88
2023-04-29T13:16:53.912Z,26.83
2023-04-29T13:19:36.339Z,27.75
2023-04-29T13:22:07.405Z,28.65
2023-04-29T13:24:35.759Z,28.88
2023-04-29T13:27:03.984Z,28.52
2023-04-29T13:29:31.066Z,28.60
2023-04-29T13:31:57.781Z,27.20
2023-04-29T13:34:24.526Z,26.33
2023-04-29T13:36:51.131Z,22.30
2023-04-29T13:39:20.182Z,22.77
2023-04-29T13:41:47.054Z,17.90
2023-04-29T13:46:44.383Z,14.95
2023-04-29T13:49:35.844Z,13.70
2023-04-29T13:54:55.521Z,13.73
2023-04-29T13:58:02.977Z,12.10
2023-04-29T14:00:10.569Z,11.95
2023-04-29T14:05:25.198Z,11.93
2023-04-29T14:07:52.127Z,12.55
2023-04-29T14:10:18.749Z,11.70
2023-04-29T14:12:45.613Z,12.38
2023-04-29T14:15:12.228Z,11.73
2023-04-29T14:17:38.891Z,12.15
2023-04-29T14:20:06.354Z,10.50
2023-04-29T14:22:33.008Z,11.32
2023-04-29T14:24:59.729Z,12.25
2023-04-29T14:27:26.648Z,12.20
2023-04-29T14:29:53.344Z,11.75
2023-04-29T14:32:19.994Z,12.18
2023-04-29T14:34:46.538Z,11.73
2023-04-29T14:37:13.111Z,12.30
2023-04-29T14:39:40.085Z,12.90
2023-04-29T14:42:06.880Z,13.15
2023-04-29T14:44:33.436Z,13.10
2023-04-29T14:47:00.593Z,12.85
2023-04-29T14:49:28.140Z,12.02
2023-04-29T14:51:56.195Z,10.73
2023-04-29T14:54:22.852Z,11.68
2023-04-29T14:56:49.934Z,12.63
2023-04-29T14:59:16.663Z,12.07
2023-04-29T15:01:43.475Z,13.35
2023-04-29T15:04:10.169Z,12.57
2023-04-29T15:06:37.354Z,11.85
2023-04-29T15:09:04.883Z,11.68
2023-04-29T15:11:31.428Z,10.95
2023-04-29T15:13:58.310Z,11.40
2023-04-29T15:16:24.966Z,10.88
2023-04-29T15:18:51.661Z,10.30
2023-04-29T15:21:18.201Z,10.13
2023-04-29T15:23:44.830Z,10.60
2023-04-29T15:26:11.527Z,10.18
2023-04-29T15:28:38.174Z,9.68
2023-04-29T15:31:05.489Z,9.13
2023-04-29T15:33:33.060Z,8.95
2023-04-29T15:35:59.741Z,10.20
2023-04-29T15:38:26.483Z,9.52
2023-04-29T15:40:59.420Z,10.07
2023-04-29T15:43:27.627Z,10.15
2023-04-29T15:45:54.402Z,9.60
2023-04-29T15:48:21.158Z,9.73
2023-04-29T15:50:47.794Z,8.95
2023-04-29T15:53:14.486Z,8.98
2023-04-29T15:55:41.138Z,8.32
2023-04-29T15:58:07.924Z,8.07
2023-04-29T16:00:34.659Z,7.28
2023-04-29T16:03:01.393Z,7.72
2023-04-29T16:05:37.342Z,7.93
2023-04-29T16:08:11.342Z,7.47
2023-04-29T16:10:37.938Z,7.55
2023-04-29T16:13:04.706Z,8.30
2023-04-29T16:15:31.426Z,9.13
2023-04-29T16:17:58.402Z,8.07
2023-04-29T16:20:25.728Z,8.43
2023-04-29T16:22:54.887Z,7.72
2023-04-29T16:25:21.760Z,8.23
2023-04-29T16:27:48.302Z,11.38
2023-04-29T16:30:15.100Z,8.20
2023-04-29T16:32:42.888Z,8.85
2023-04-29T16:35:10.335Z,8.57
2023-04-29T16:37:37.437Z,8.38
2023-04-29T16:40:04.902Z,8.27
2023-04-29T16:42:31.525Z,8.68
2023-04-29T16:44:58.183Z,8.50
2023-04-29T16:47:24.969Z,8.63
2023-04-29T16:49:51.979Z,8.73
2023-04-29T16:52:20.660Z,8.85
2023-04-29T16:54:47.254Z,8.00
2023-04-29T16:57:13.816Z,7.90
2023-04-29T16:59:40.485Z,8.20
2023-04-29T17:02:07.194Z,8.30
2023-04-29T17:04:33.974Z,7.65
2023-04-29T17:07:01.555Z,7.65
2023-04-29T17:09:28.262Z,8.52
2023-04-29T17:11:55.144Z,7.57
2023-04-29T17:14:21.816Z,8.23
2023-04-29T17:16:48.374Z,8.13
2023-04-29T17:19:14.944Z,7.68
2023-04-29T17:21:41.549Z,7.82
2023-04-29T17:24:08.057Z,7.70
2023-04-29T17:26:34.585Z,7.43
2023-04-29T17:29:01.197Z,8.05
2023-04-29T17:31:44.534Z,7.80
2023-04-29T17:34:18.337Z,7.60
2023-04-29T17:36:48.240Z,8.57
2023-04-29T17:39:14.818Z,7.95
2023-04-29T17:41:41.726Z,7.80
2023-04-29T17:44:08.740Z,7.95
2023-04-29T17:46:36.144Z,7.13
2023-04-29T17:49:03.835Z,7.78
2023-04-29T17:51:34.326Z,6.47
2023-04-29T17:54:01.843Z,8.20
2023-04-29T17:56:28.505Z,8.52
2023-04-29T17:58:55.311Z,7.43
2023-04-29T18:01:22.107Z,9.73
2023-04-29T18:03:50.819Z,9.57
2023-04-29T18:06:18.214Z,9.00
2023-04-29T18:08:45.682Z,8.75
2023-04-29T18:11:14.928Z,7.85
2023-04-29T18:13:41.700Z,8.18
2023-04-29T18:16:08.827Z,7.32
2023-04-29T18:18:38.984Z,7.68
2023-04-29T18:21:06.054Z,7.82
2023-04-29T18:23:32.588Z,7.93
2023-04-29T18:25:59.785Z,7.30
2023-04-29T18:28:29.278Z,7.20
2023-04-29T18:30:56.951Z,6.90
2023-04-29T18:33:24.580Z,7.22
2023-04-29T18:35:51.621Z,7.32
2023-04-29T18:38:18.240Z,7.18
2023-04-29T18:40:45.195Z,7.13
2023-04-29T18:43:15.057Z,6.72
2023-04-29T18:45:41.695Z,6.88
2023-04-29T18:48:08.593Z,6.38
2023-04-29T18:50:35.314Z,7.63
2023-04-29T18:53:02.039Z,7.45
2023-04-29T18:55:28.790Z,7.93
2023-04-29T18:57:55.522Z,7.20
2023-04-29T19:00:22.467Z,6.72
2023-04-29T19:02:49.272Z,8.00
2023-04-29T19:05:16.323Z,6.75
2023-04-29T19:07:43.239Z,7.15
2023-04-29T19:10:10.148Z,7.72
2023-04-29T19:12:36.722Z,7.40
2023-04-29T19:15:03.568Z,6.78
2023-04-29T19:17:30.128Z,6.68
2023-04-29T19:19:56.854Z,7.53
2023-04-29T19:22:24.658Z,6.00
2023-04-29T19:24:54.428Z,7.70
2023-04-29T19:27:21.334Z,7.63
2023-04-29T19:29:47.978Z,7.22
2023-04-29T19:32:15.070Z,6.95
2023-04-29T19:34:41.706Z,7.28
2023-04-29T19:37:11.260Z,7.80
2023-04-29T19:39:38.206Z,8.63
2023-04-29T19:42:04.765Z,9.32
2023-04-29T19:44:31.409Z,17.20
2023-04-29T19:46:58.728Z,11.00
2023-04-29T19:49:27.740Z,10.27
2023-04-29T19:51:54.505Z,10.32
2023-04-29T19:54:21.278Z,10.52
2023-04-29T19:56:47.958Z,11.05
2023-04-29T19:59:14.803Z,9.13
2023-04-29T20:01:41.703Z,10.60
2023-04-29T20:04:09.944Z,10.18
2023-04-29T20:06:37.983Z,10.00
2023-04-29T20:09:04.819Z,9.95
2023-04-29T20:11:31.488Z,10.65
2023-04-29T20:13:58.660Z,10.20
2023-04-29T20:16:27.638Z,9.27
2023-04-29T20:18:54.609Z,9.75
2023-04-29T20:21:21.212Z,10.18
2023-04-29T20:23:49.016Z,10.48
2023-04-29T20:26:17.284Z,10.25
2023-04-29T20:28:44.480Z,10.00
2023-04-29T20:31:11.015Z,11.50
2023-04-29T20:33:37.564Z,11.18
2023-04-29T20:36:06.692Z,11.48
2023-04-29T20:38:36.192Z,11.48
2023-04-29T20:41:03.466Z,11.73
2023-04-29T20:43:30.210Z,12.25
2023-04-29T20:46:00.493Z,11.57
2023-04-29T20:48:28.151Z,10.65
2023-04-29T20:50:55.824Z,10.57
2023-04-29T20:53:22.719Z,11.75
2023-04-29T20:55:49.331Z,11.98
2023-04-29T20:58:16.301Z,12.88
2023-04-29T21:00:42.987Z,14.48
2023-04-29T21:03:10.347Z,14.95
2023-04-29T21:05:38.267Z,14.80
2023-04-29T21:08:05.903Z,15.70
2023-04-29T21:10:32.565Z,16.42
2023-04-29T21:12:59.147Z,16.45
2023-04-29T21:15:27.009Z,14.90
2023-04-29T21:17:53.681Z,16.35
2023-04-29T21:20:20.382Z,14.82
2023-04-29T21:22:47.006Z,15.75
2023-04-29T21:25:13.563Z,15.20
2023-04-29T21:27:40.221Z,15.98
2023-04-29T21:30:07.573Z,14.55
2023-04-29T21:32:35.841Z,15.80
2023-04-29T21:35:03.284Z,14.30
2023-04-29T21:37:30.651Z,14.48
2023-04-29T21:40:00.055Z,14.02
2023-04-29T21:42:26.946Z,13.30
2023-04-29T21:44:55.352Z,12.48
2023-04-29T21:47:21.938Z,12.73
2023-04-29T21:49:48.952Z,13.32
2023-04-29T21:52:15.695Z,12.50
2023-04-29T21:54:45.414Z,12.18
2023-04-29T21:57:15.384Z,13.38
2023-04-29T21:59:42.099Z,12.18
2023-04-29T22:02:15.063Z,13.35
2023-04-29T22:04:41.830Z,13.25
2023-04-29T22:07:09.060Z,13.38
2023-04-29T22:09:36.477Z,13.60
2023-04-29T22:12:03.349Z,14.45
2023-04-29T22:14:30.004Z,14.95
2023-04-29T22:16:56.628Z,14.98
2023-04-29T22:19:24.445Z,13.45
2023-04-29T22:21:51.437Z,13.95
2023-04-29T22:24:18.051Z,14.13
2023-04-29T22:26:44.749Z,13.07
2023-04-29T22:29:11.464Z,14.82
2023-04-29T22:31:38.006Z,13.70
2023-04-29T22:34:04.678Z,13.45
2023-04-29T22:36:32.061Z,14.13
2023-04-29T22:38:58.728Z,14.48
2023-04-29T22:41:25.637Z,13.55
2023-04-29T22:43:56.951Z,13.88
2023-04-29T22:46:24.693Z,13.40
2023-04-29T22:48:51.444Z,12.43
2023-04-29T22:51:18.152Z,11.30
2023-04-29T22:53:44.741Z,11.55
2023-04-29T22:56:11.631Z,11.02
2023-04-29T22:58:39.446Z,10.07
2023-04-29T23:01:06.613Z,10.05
2023-04-29T23:03:33.599Z,10.40
2023-04-29T23:06:01.121Z,8.98
2023-04-29T23:08:28.084Z,12.73
2023-04-29T23:10:54.752Z,10.13
2023-04-29T23:13:21.424Z,8.95
2023-04-29T23:15:47.989Z,9.43
2023-04-29T23:18:14.689Z,9.13
2023-04-29T23:20:41.340Z,8.60
2023-04-29T23:23:08.576Z,9.85
2023-04-29T23:25:35.139Z,9.13
2023-04-29T23:28:01.808Z,9.10
2023-04-29T23:30:28.404Z,8.93
2023-04-29T23:32:55.303Z,10.23
2023-04-29T23:35:22.073Z,9.57
2023-04-29T23:37:48.695Z,9.27
2023-04-29T23:40:16.027Z,9.82
2023-04-29T23:42:43.169Z,9.60
2023-04-29T23:45:10.108Z,9.82
2023-04-29T23:47:36.726Z,9.80
2023-04-29T23:50:04.026Z,9.48
2023-04-29T23:52:30.616Z,9.57
2023-04-29T23:54:57.203Z,9.95
2023-04-29T23:57:23.750Z,11.25
2023-04-29T23:59:50.474Z,11.43
